Time;durP1;ratioP1;P1;durP2;ratioP2;P2;SDS_P1;SDS_P2;PMS_P1;PMS_P2;Temp;Humidity;BMP_temperature;BMP_pressure;BME280_temperature;BME280_humidity;BME280_pressure;Samples;Min_cycle;Max_cycle;Signal;HPM_P1;HPM_P2
2023/02/23 00:00:13;;;;;;;;;;;10.00;88.70;;;;;;4916091;29;20116;-33
2023/02/23 00:02:39;;;;;;;;;;;10.00;88.70;;;;;;4916891;29;19983;-35
2023/02/23 00:05:05;;;;;;;;;;;10.00;88.70;;;;;;4916775;29;19958;-34
2023/02/23 00:07:33;;;;;;;;;;;10.00;88.70;;;;;;4917027;29;19915;-32
2023/02/23 00:10:00;;;;;;;;;;;10.00;88.60;;;;;;4916956;29;19915;-35
2023/02/23 00:12:25;;;;;;;;;;;10.00;88.60;;;;;;4917078;29;20299;-36
2023/02/23 01:06:45;;;;;;;;;;;10.00;88.50;;;;;;4921347;29;19974;-33
2023/02/23 01:09:13;;;;;;;;;;;10.00;88.50;;;;;;4934751;29;20304;-38
2023/02/23 01:11:40;;;;;;;;;;;10.00;88.50;;;;;;4934277;29;19958;-35
2023/02/23 01:14:05;;;;;;;;;;;10.00;88.50;;;;;;4934547;29;19914;-33
2023/02/23 01:16:32;;;;;;;;;;;10.00;88.50;;;;;;4935158;29;20283;-32
2023/02/23 01:18:58;;;;;;;;;;;10.00;88.50;;;;;;4934392;29;19922;-36
2023/02/23 01:21:26;;;;;;;;;;;10.00;88.50;;;;;;4934690;29;20259;-44
2023/02/23 01:23:52;;;;;;;;;;;10.00;88.50;;;;;;4934288;29;19919;-42
2023/02/23 01:26:21;;;;;;;;;;;10.00;88.50;;;;;;4934429;29;19915;-34
2023/02/23 01:28:48;;;;;;;;;;;10.10;88.60;;;;;;4934584;29;19937;-37
2023/02/23 01:31:14;;;;;;;;;;;10.10;88.60;;;;;;4917216;29;19970;-31
2023/02/23 01:33:40;;;;;;;;;;;10.10;88.50;;;;;;4934612;29;19930;-41
2023/02/23 01:36:05;;;;;;;;;;;10.10;88.50;;;;;;4934238;29;19915;-36
2023/02/23 01:38:31;;;;;;;;;;;10.10;88.40;;;;;;4934196;29;20346;-34
2023/02/23 01:40:57;;;;;;;;;;;10.10;88.50;;;;;;4934451;29;19922;-34
2023/02/23 01:43:24;;;;;;;;;;;10.10;88.50;;;;;;4933986;29;19943;-33
2023/02/23 01:45:53;;;;;;;;;;;10.10;88.50;;;;;;4934354;29;19922;-34
2023/02/23 01:48:20;;;;;;;;;;;10.10;88.50;;;;;;4934278;29;19973;-37
2023/02/23 01:50:54;;;;;;;;;;;10.10;88.40;;;;;;4934155;29;19915;-34
2023/02/23 01:53:21;;;;;;;;;;;10.00;88.50;;;;;;4934051;29;19993;-35
2023/02/23 01:55:53;;;;;;;;;;;10.00;88.60;;;;;;4933922;29;19914;-33
2023/02/23 01:58:20;;;;;;;;;;;10.00;88.50;;;;;;4934256;29;19919;-37
2023/02/23 02:00:47;;;;;;;;;;;9.90;88.50;;;;;;4933920;29;19954;-33
2023/02/23 02:03:17;;;;;;;;;;;9.90;88.60;;;;;;4934795;29;19947;-32
2023/02/23 02:05:44;;;;;;;;;;;9.90;88.60;;;;;;4934389;29;19915;-34
2023/02/23 02:08:10;;;;;;;;;;;9.90;88.50;;;;;;4934395;29;20272;-33
2023/02/23 02:10:39;;;;;;;;;;;9.90;88.50;;;;;;4934757;29;19918;-32
2023/02/23 02:13:05;;;;;;;;;;;9.90;88.60;;;;;;4934782;29;19922;-38
2023/02/23 02:15:32;;;;;;;;;;;9.90;88.60;;;;;;4934581;29;19922;-30
2023/02/23 02:18:22;;;;;;;;;;;9.90;88.60;;;;;;4934525;29;19966;-33
2023/02/23 02:20:57;;;;;;;;;;;9.90;88.50;;;;;;4934678;29;19915;-34
2023/02/23 02:23:42;;;;;;;;;;;9.90;88.60;;;;;;4935847;29;19919;-31
2023/02/23 02:26:25;;;;;;;;;;;9.90;88.60;;;;;;4938440;29;19915;-37
2023/02/23 02:29:00;;;;;;;;;;;9.90;88.60;;;;;;4938505;29;19915;-35
2023/02/23 02:31:34;;;;;;;;;;;9.90;88.60;;;;;;4921026;29;19957;-29
2023/02/23 02:34:00;;;;;;;;;;;9.90;88.50;;;;;;4920936;29;19919;-36
2023/02/23 02:36:25;;;;;;;;;;;9.90;88.40;;;;;;4938505;29;19915;-31
2023/02/23 02:39:33;;;;;;;;;;;9.90;88.50;;;;;;4938021;29;20355;-36
2023/02/23 02:42:10;;;;;;;;;;;9.80;88.50;;;;;;4937879;29;19919;-31
2023/02/23 02:44:48;;;;;;;;;;;9.80;88.50;;;;;;4937818;29;19921;-33
2023/02/23 02:47:51;;;;;;;;;;;9.70;88.50;;;;;;4937955;29;20003;-35
2023/02/23 02:50:39;;;;;;;;;;;9.70;88.50;;;;;;4878839;29;20007;-37
2023/02/23 02:53:09;;;;;;;;;;;9.70;88.50;;;;;;4900880;29;20282;-33
2023/02/23 02:55:36;;;;;;;;;;;9.70;88.60;;;;;;4937855;29;19915;-35
2023/02/23 02:58:06;;;;;;;;;;;9.70;88.60;;;;;;4937999;29;20325;-34
2023/02/23 04:18:39;;;;;;;;;;;9.90;88.70;;;;;;4936419;29;19915;-34
2023/02/23 04:21:05;;;;;;;;;;;9.90;88.60;;;;;;4936719;29;20002;-34
2023/02/23 04:23:31;;;;;;;;;;;9.80;88.60;;;;;;4936360;29;19925;-35
2023/02/23 04:25:57;;;;;;;;;;;9.90;88.70;;;;;;4936432;29;19914;-31
2023/02/23 04:28:23;;;;;;;;;;;9.90;88.70;;;;;;4936423;29;19950;-33
2023/02/23 04:30:51;;;;;;;;;;;9.90;88.70;;;;;;4936445;29;19914;-35
2023/02/23 04:33:16;;;;;;;;;;;9.80;88.60;;;;;;4936524;29;19926;-34
2023/02/23 04:35:42;;;;;;;;;;;9.80;88.70;;;;;;4936314;29;20355;-35
2023/02/23 04:38:07;;;;;;;;;;;9.90;88.70;;;;;;4934841;29;20409;-32
2023/02/23 04:40:33;;;;;;;;;;;9.80;88.60;;;;;;4936026;29;19922;-37
2023/02/23 04:42:59;;;;;;;;;;;9.80;88.70;;;;;;4935995;29;19941;-36
2023/02/23 04:45:24;;;;;;;;;;;9.80;88.70;;;;;;4935443;29;19934;-36
2023/02/23 04:47:50;;;;;;;;;;;9.80;88.70;;;;;;4935687;29;19973;-34
2023/02/23 04:50:16;;;;;;;;;;;9.80;88.70;;;;;;4936086;29;19915;-37
2023/02/23 04:52:42;;;;;;;;;;;9.80;88.80;;;;;;4935998;29;20446;-36
2023/02/23 04:55:11;;;;;;;;;;;9.80;88.90;;;;;;4936015;29;19921;-31
2023/02/23 04:57:37;;;;;;;;;;;9.80;88.80;;;;;;4935833;29;20276;-34
2023/02/23 05:00:04;;;;;;;;;;;9.80;88.90;;;;;;4935501;29;19922;-37
2023/02/23 05:02:29;;;;;;;;;;;9.80;88.80;;;;;;4935857;29;19949;-32
2023/02/23 05:04:54;;;;;;;;;;;9.70;88.80;;;;;;4935511;29;20006;-35
2023/02/23 05:07:20;;;;;;;;;;;9.70;88.90;;;;;;4935414;29;20370;-35
2023/02/23 05:09:46;;;;;;;;;;;9.70;88.90;;;;;;4935715;29;19930;-33
2023/02/23 05:12:11;;;;;;;;;;;9.70;88.90;;;;;;4935444;29;19923;-32
2023/02/23 05:14:37;;;;;;;;;;;9.70;88.90;;;;;;4935382;29;20255;-34
2023/02/23 05:17:03;;;;;;;;;;;9.70;88.90;;;;;;4935201;29;20017;-34
2023/02/23 05:19:28;;;;;;;;;;;9.70;88.90;;;;;;4935395;29;19914;-33
2023/02/23 05:21:54;;;;;;;;;;;9.60;88.90;;;;;;4935274;29;19915;-34
2023/02/23 05:24:19;;;;;;;;;;;9.60;88.90;;;;;;4935135;29;20667;-34
2023/02/23 05:26:45;;;;;;;;;;;9.60;89.00;;;;;;4935301;29;19954;-31
2023/02/23 05:29:11;;;;;;;;;;;9.60;89.10;;;;;;4935070;29;19915;-31
2023/02/23 05:31:36;;;;;;;;;;;9.60;89.00;;;;;;4935299;29;19973;-34
2023/02/23 05:34:02;;;;;;;;;;;9.60;89.10;;;;;;4934959;29;19915;-34
2023/02/23 05:36:27;;;;;;;;;;;9.60;89.10;;;;;;4935096;29;19915;-31
2023/02/23 05:38:53;;;;;;;;;;;9.60;89.10;;;;;;4935340;29;19922;-33
2023/02/23 05:41:20;;;;;;;;;;;9.60;89.10;;;;;;4935306;29;19926;-33
2023/02/23 05:43:46;;;;;;;;;;;9.60;89.10;;;;;;4935152;29;19950;-36
2023/02/23 05:46:14;;;;;;;;;;;9.60;89.10;;;;;;4935155;29;20489;-36
2023/02/23 05:48:39;;;;;;;;;;;9.60;89.00;;;;;;4935043;29;19921;-37
2023/02/23 05:51:06;;;;;;;;;;;9.60;89.00;;;;;;4935128;29;19915;-39
2023/02/23 05:53:31;;;;;;;;;;;9.60;89.10;;;;;;4935057;29;19922;-35
2023/02/23 05:55:57;;;;;;;;;;;9.60;89.10;;;;;;4934881;29;19915;-34
2023/02/23 05:58:23;;;;;;;;;;;9.60;89.20;;;;;;4934643;29;19919;-31
2023/02/23 06:00:50;;;;;;;;;;;9.50;89.20;;;;;;4934684;29;19963;-35
2023/02/23 06:03:15;;;;;;;;;;;9.60;89.20;;;;;;4934487;29;20005;-36
2023/02/23 06:05:42;;;;;;;;;;;9.60;89.20;;;;;;4934784;29;19946;-32
2023/02/23 06:08:07;;;;;;;;;;;9.60;89.20;;;;;;4934368;29;19923;-32
2023/02/23 06:10:33;;;;;;;;;;;9.60;89.20;;;;;;4934415;29;19962;-32
2023/02/23 06:12:58;;;;;;;;;;;9.60;89.10;;;;;;4934926;29;20010;-31
2023/02/23 06:15:24;;;;;;;;;;;9.50;89.10;;;;;;4934530;29;19966;-38
2023/02/23 06:17:49;;;;;;;;;;;9.50;89.20;;;;;;4934795;29;19919;-35
2023/02/23 06:20:15;;;;;;;;;;;9.50;89.30;;;;;;4934483;29;19957;-35
2023/02/23 06:22:41;;;;;;;;;;;9.50;89.30;;;;;;4934381;29;20267;-34
2023/02/23 06:25:11;;;;;;;;;;;9.50;89.30;;;;;;4934405;29;20025;-33
2023/02/23 06:27:38;;;;;;;;;;;9.50;89.40;;;;;;4934418;29;19922;-35
2023/02/23 06:30:03;;;;;;;;;;;9.50;89.40;;;;;;4934581;29;20264;-31
2023/02/23 06:32:29;;;;;;;;;;;9.50;89.40;;;;;;4917417;29;20018;-38
2023/02/23 06:34:54;;;;;;;;;;;9.50;89.40;;;;;;4934457;29;19993;-38
2023/02/23 06:37:20;;;;;;;;;;;9.50;89.40;;;;;;4934491;29;19963;-35
2023/02/23 06:39:46;;;;;;;;;;;9.50;89.40;;;;;;4934329;29;19966;-32
2023/02/23 06:42:11;;;;;;;;;;;9.50;89.40;;;;;;4934359;29;20256;-32
2023/02/23 06:44:38;;;;;;;;;;;9.50;89.40;;;;;;4934361;29;19911;-31
2023/02/23 06:47:04;;;;;;;;;;;9.50;89.40;;;;;;4934657;29;19918;-32
2023/02/23 06:49:30;;;;;;;;;;;9.50;89.30;;;;;;4934663;29;19921;-34
2023/02/23 06:51:55;;;;;;;;;;;9.50;89.30;;;;;;4934208;29;20322;-35
2023/02/23 06:54:22;;;;;;;;;;;9.50;89.40;;;;;;4934425;29;19998;-34
2023/02/23 06:56:48;;;;;;;;;;;9.50;89.40;;;;;;4934202;29;19927;-34
2023/02/23 06:59:14;;;;;;;;;;;9.50;89.30;;;;;;4934256;29;19941;-32
2023/02/23 07:01:41;;;;;;;;;;;9.60;89.40;;;;;;4934332;29;19914;-32
2023/02/23 07:04:06;;;;;;;;;;;9.60;89.40;;;;;;4934059;29;20005;-36
2023/02/23 07:06:32;;;;;;;;;;;9.60;89.30;;;;;;4933886;29;20302;-32
2023/02/23 07:08:57;;;;;;;;;;;9.50;89.30;;;;;;4934781;29;19911;-29
2023/02/23 07:11:23;;;;;;;;;;;9.60;89.40;;;;;;4937717;29;19915;-33
2023/02/23 07:13:48;;;;;;;;;;;9.60;89.30;;;;;;4936281;29;20359;-30
2023/02/23 07:16:15;;;;;;;;;;;9.50;89.30;;;;;;4937470;29;19911;-34
2023/02/23 07:18:40;;;;;;;;;;;9.50;89.30;;;;;;4937712;29;19994;-34
2023/02/23 07:21:06;;;;;;;;;;;9.50;89.30;;;;;;4937590;29;19942;-39
2023/02/23 07:23:32;;;;;;;;;;;9.50;89.30;;;;;;4937534;29;19919;-34
2023/02/23 07:25:58;;;;;;;;;;;9.40;89.40;;;;;;4937574;29;19911;-35
2023/02/23 07:28:26;;;;;;;;;;;9.40;89.50;;;;;;4937400;29;19994;-33
2023/02/23 07:30:54;;;;;;;;;;;9.40;89.50;;;;;;4937375;29;20002;-32
2023/02/23 07:33:19;;;;;;;;;;;9.40;89.50;;;;;;4937291;29;19970;-32
2023/02/23 07:35:45;;;;;;;;;;;9.40;89.50;;;;;;4937478;29;19915;-38
2023/02/23 07:38:11;;;;;;;;;;;9.30;89.50;;;;;;4937133;29;19910;-37
2023/02/23 07:40:36;;;;;;;;;;;9.30;89.50;;;;;;4937086;29;20260;-34
2023/02/23 07:43:02;;;;;;;;;;;9.30;89.50;;;;;;4937218;29;20055;-34
2023/02/23 07:45:27;;;;;;;;;;;9.30;89.60;;;;;;4937258;29;19911;-33
2023/02/23 07:47:53;;;;;;;;;;;9.30;89.60;;;;;;4937101;29;20485;-33
2023/02/23 07:50:18;;;;;;;;;;;9.30;89.50;;;;;;4936708;29;19911;-33
2023/02/23 07:52:44;;;;;;;;;;;9.30;89.60;;;;;;4936807;29;19917;-31
2023/02/23 07:55:10;;;;;;;;;;;9.30;89.60;;;;;;4936714;29;19914;-35
2023/02/23 07:57:36;;;;;;;;;;;9.30;89.70;;;;;;4936685;29;20401;-33
2023/02/23 08:00:03;;;;;;;;;;;9.30;89.60;;;;;;4936524;29;19917;-35
2023/02/23 08:02:28;;;;;;;;;;;9.30;89.60;;;;;;4936832;29;19914;-31
2023/02/23 08:04:54;;;;;;;;;;;9.30;89.50;;;;;;4936685;29;19910;-32
2023/02/23 08:07:20;;;;;;;;;;;9.40;89.60;;;;;;4936342;29;19969;-32
2023/02/23 08:09:47;;;;;;;;;;;9.40;89.50;;;;;;4936442;29;19950;-34
2023/02/23 08:12:14;;;;;;;;;;;9.40;89.50;;;;;;4936406;29;19993;-34
2023/02/23 08:14:39;;;;;;;;;;;9.50;89.50;;;;;;4936727;29;20288;-30
2023/02/23 08:17:05;;;;;;;;;;;9.50;89.50;;;;;;4936357;29;19969;-34
2023/02/23 08:19:30;;;;;;;;;;;9.50;89.40;;;;;;4936581;29;19946;-32
2023/02/23 08:21:56;;;;;;;;;;;9.50;89.40;;;;;;4935268;29;20426;-30
2023/02/23 08:24:22;;;;;;;;;;;9.50;89.40;;;;;;4936345;29;19911;-33
2023/02/23 08:26:49;;;;;;;;;;;9.50;89.40;;;;;;4936620;29;19918;-34
2023/02/23 08:29:14;;;;;;;;;;;9.50;89.50;;;;;;4936419;29;20402;-32
2023/02/23 08:31:40;;;;;;;;;;;9.50;89.50;;;;;;4936628;29;19989;-31
2023/02/23 08:34:05;;;;;;;;;;;9.50;89.50;;;;;;4936171;29;19911;-31
2023/02/23 08:36:31;;;;;;;;;;;9.50;89.50;;;;;;4936238;29;19958;-39
2023/02/23 08:38:57;;;;;;;;;;;9.50;89.50;;;;;;4936294;29;20267;-40
2023/02/23 08:41:22;;;;;;;;;;;9.50;89.40;;;;;;4935880;29;19910;-34
2023/02/23 08:43:48;;;;;;;;;;;9.60;89.40;;;;;;4936034;29;20291;-32
2023/02/23 08:46:15;;;;;;;;;;;9.60;89.40;;;;;;4935797;29;19915;-37
2023/02/23 08:48:41;;;;;;;;;;;9.60;89.40;;;;;;4935842;29;19918;-34
2023/02/23 08:51:06;;;;;;;;;;;9.70;89.30;;;;;;4935785;29;19915;-35
2023/02/23 08:53:32;;;;;;;;;;;9.70;89.30;;;;;;4935734;29;20252;-30
2023/02/23 08:55:59;;;;;;;;;;;9.70;89.20;;;;;;4935936;29;19911;-34
2023/02/23 08:58:25;;;;;;;;;;;9.70;89.10;;;;;;4935791;29;19911;-39
2023/02/23 09:00:50;;;;;;;;;;;9.70;89.10;;;;;;4935602;29;20279;-32
2023/02/23 09:03:16;;;;;;;;;;;9.80;89.20;;;;;;4935680;29;20005;-34
2023/02/23 09:05:42;;;;;;;;;;;9.90;89.20;;;;;;4935893;29;20352;-33
2023/02/23 09:08:08;;;;;;;;;;;9.90;89.00;;;;;;4935356;29;19994;-34
2023/02/23 09:10:34;;;;;;;;;;;9.80;88.90;;;;;;4935336;29;19915;-40
2023/02/23 09:13:00;;;;;;;;;;;9.80;89.00;;;;;;4935690;29;20028;-33
2023/02/23 09:15:25;;;;;;;;;;;9.80;89.00;;;;;;4935677;29;20081;-34
2023/02/23 09:17:51;;;;;;;;;;;9.80;89.10;;;;;;4918222;29;20437;-31
2023/02/23 09:20:16;;;;;;;;;;;9.90;89.20;;;;;;4935402;29;19915;-31
2023/02/23 09:22:48;;;;;;;;;;;9.90;89.10;;;;;;4935054;29;20327;-35
2023/02/23 09:25:18;;;;;;;;;;;10.00;89.10;;;;;;4935049;29;19918;-36
2023/02/23 09:27:44;;;;;;;;;;;10.00;89.00;;;;;;4935068;29;19911;-31
2023/02/23 09:30:11;;;;;;;;;;;10.00;88.90;;;;;;4934963;29;20315;-34
2023/02/23 09:32:36;;;;;;;;;;;10.10;89.00;;;;;;4934795;29;19922;-37
2023/02/23 09:35:02;;;;;;;;;;;10.10;88.90;;;;;;4935039;29;19942;-35
2023/02/23 09:37:27;;;;;;;;;;;10.20;88.90;;;;;;4934758;29;19910;-34
2023/02/23 09:39:53;;;;;;;;;;;10.30;88.80;;;;;;4935100;29;20027;-34
2023/02/23 09:42:39;;;;;;;;;;;10.30;88.70;;;;;;4934695;29;19915;-35
2023/02/23 09:45:13;;;;;;;;;;;10.30;88.50;;;;;;4934224;29;20001;-32
2023/02/23 09:47:50;;;;;;;;;;;10.30;88.60;;;;;;4934780;29;19918;-30
2023/02/23 09:50:19;;;;;;;;;;;10.30;88.70;;;;;;4934855;29;20010;-34
2023/02/23 09:52:47;;;;;;;;;;;10.20;88.60;;;;;;4935029;29;20359;-35
2023/02/23 09:55:14;;;;;;;;;;;10.30;88.60;;;;;;4934703;29;19934;-32
2023/02/23 09:57:49;;;;;;;;;;;10.20;88.70;;;;;;4934854;29;19918;-35
2023/02/23 10:00:22;;;;;;;;;;;10.20;88.70;;;;;;4933707;29;20308;-32
2023/02/23 10:02:54;;;;;;;;;;;10.30;88.70;;;;;;4934878;29;19922;-34
2023/02/23 10:05:21;;;;;;;;;;;10.30;88.70;;;;;;4934676;29;19938;-32
2023/02/23 10:07:55;;;;;;;;;;;10.30;88.70;;;;;;4934524;29;20024;-37
2023/02/23 10:10:31;;;;;;;;;;;10.30;89.20;;;;;;4934346;29;20395;-31
2023/02/23 10:13:08;;;;;;;;;;;10.40;89.20;;;;;;4934545;29;19911;-36
2023/02/23 10:15:37;;;;;;;;;;;10.50;88.50;;;;;;4934548;29;19910;-39
2023/02/23 10:18:14;;;;;;;;;;;10.50;88.30;;;;;;4934513;29;19917;-34
2023/02/23 10:20:49;;;;;;;;;;;10.50;88.30;;;;;;4934771;29;20068;-38
2023/02/23 10:23:33;;;;;;;;;;;10.50;88.40;;;;;;4934525;29;19915;-34
2023/02/23 10:25:59;;;;;;;;;;;10.50;88.30;;;;;;4934402;29;20013;-36
2023/02/23 10:28:25;;;;;;;;;;;10.50;88.30;;;;;;4934512;29;19917;-34
2023/02/23 10:30:53;;;;;;;;;;;10.50;88.10;;;;;;4934802;29;19911;-32
2023/02/23 10:33:39;;;;;;;;;;;10.40;88.10;;;;;;4934352;29;19915;-37
2023/02/23 10:36:11;;;;;;;;;;;10.30;88.30;;;;;;4933927;29;19911;-36
2023/02/23 10:38:36;;;;;;;;;;;10.30;88.40;;;;;;4934599;29;20445;-34
2023/02/23 10:41:03;;;;;;;;;;;10.30;88.50;;;;;;4934462;29;19911;-34
2023/02/23 10:43:28;;;;;;;;;;;10.30;88.40;;;;;;4934625;29;19925;-35
2023/02/23 10:45:54;;;;;;;;;;;10.30;88.40;;;;;;4938124;29;20258;-37
2023/02/23 10:48:22;;;;;;;;;;;10.40;88.40;;;;;;4937621;29;19961;-34
2023/02/23 10:50:51;;;;;;;;;;;10.30;88.30;;;;;;4937930;29;19910;-34
2023/02/23 10:53:26;;;;;;;;;;;10.40;88.20;;;;;;4938184;29;19911;-36
2023/02/23 10:56:04;;;;;;;;;;;10.30;88.20;;;;;;4938069;29;19914;-30
2023/02/23 10:58:29;;;;;;;;;;;10.30;88.40;;;;;;4937830;29;19998;-32
2023/02/23 11:01:02;;;;;;;;;;;10.30;88.30;;;;;;4937783;29;19965;-35
2023/02/23 11:03:32;;;;;;;;;;;10.30;88.40;;;;;;4937684;29;20587;-32
2023/02/23 11:05:58;;;;;;;;;;;10.30;88.40;;;;;;4937898;29;20013;-35
2023/02/23 11:08:29;;;;;;;;;;;10.40;88.40;;;;;;4937469;29;19962;-36
2023/02/23 11:10:59;;;;;;;;;;;10.40;88.40;;;;;;4937650;29;19922;-33
2023/02/23 11:13:26;;;;;;;;;;;10.30;88.20;;;;;;4937459;29;19922;-33
2023/02/23 11:16:10;;;;;;;;;;;10.40;88.30;;;;;;4937612;29;19915;-36
2023/02/23 11:18:36;;;;;;;;;;;10.40;88.30;;;;;;4937498;29;19914;-33
2023/02/23 11:21:02;;;;;;;;;;;10.40;88.20;;;;;;4937413;29;19915;-33
2023/02/23 11:23:34;;;;;;;;;;;10.30;88.20;;;;;;4937523;29;19925;-37
2023/02/23 11:26:04;;;;;;;;;;;10.30;88.30;;;;;;4937665;29;20365;-36
2023/02/23 11:28:34;;;;;;;;;;;10.30;88.30;;;;;;4937247;29;19957;-32
2023/02/23 11:31:07;;;;;;;;;;;10.30;88.20;;;;;;4937195;29;19922;-37
2023/02/23 11:33:34;;;;;;;;;;;10.40;88.30;;;;;;4937386;29;19946;-32
2023/02/23 11:36:12;;;;;;;;;;;10.40;88.30;;;;;;4937339;29;20001;-37
2023/02/23 11:38:38;;;;;;;;;;;10.40;88.20;;;;;;4937193;29;20333;-34
2023/02/23 11:41:16;;;;;;;;;;;10.50;88.20;;;;;;4937075;29;19918;-38
2023/02/23 11:43:49;;;;;;;;;;;10.50;88.10;;;;;;4936802;29;19965;-39
2023/02/23 11:46:14;;;;;;;;;;;10.50;88.00;;;;;;4937153;29;20379;-37
2023/02/23 11:48:48;;;;;;;;;;;10.50;87.90;;;;;;4936786;29;19915;-32
2023/02/23 11:51:24;;;;;;;;;;;10.50;88.00;;;;;;4936815;29;20013;-33
2023/02/23 11:53:50;;;;;;;;;;;10.50;87.80;;;;;;4919462;29;20354;-35
2023/02/23 11:56:18;;;;;;;;;;;10.50;87.80;;;;;;4936634;29;20302;-33
2023/02/23 11:58:52;;;;;;;;;;;10.40;87.80;;;;;;4919279;29;19915;-33
2023/02/23 12:01:40;;;;;;;;;;;10.50;88.00;;;;;;4936414;29;19962;-37
2023/02/23 12:04:06;;;;;;;;;;;10.40;87.90;;;;;;4936296;29;19966;-30
2023/02/23 12:06:34;;;;;;;;;;;10.50;87.90;;;;;;4936197;29;19923;-38
2023/02/23 12:09:06;;;;;;;;;;;10.50;87.80;;;;;;4936345;29;19934;-35
2023/02/23 12:11:34;;;;;;;;;;;10.50;87.80;;;;;;4936219;29;19938;-33
2023/02/23 12:14:02;;;;;;;;;;;10.60;87.90;;;;;;4936297;29;19921;-34
2023/02/23 12:16:43;;;;;;;;;;;10.60;87.70;;;;;;4936097;29;20368;-36
2023/02/23 12:19:22;;;;;;;;;;;10.70;87.70;;;;;;4936480;29;19915;-34
2023/02/23 12:21:52;;;;;;;;;;;10.70;87.50;;;;;;4936409;29;20379;-32
2023/02/23 12:24:33;;;;;;;;;;;10.80;87.30;;;;;;4936235;29;19918;-35
2023/02/23 12:27:03;;;;;;;;;;;10.80;87.30;;;;;;4935962;29;19915;-34
2023/02/23 12:29:37;;;;;;;;;;;10.70;87.20;;;;;;4935871;29;19921;-34
2023/02/23 12:32:11;;;;;;;;;;;10.70;87.20;;;;;;4936047;29;20419;-29
2023/02/23 12:34:41;;;;;;;;;;;10.70;88.00;;;;;;4935899;29;19915;-33
2023/02/23 12:37:15;;;;;;;;;;;10.70;87.30;;;;;;4935798;29;19923;-34
2023/02/23 12:39:43;;;;;;;;;;;10.70;87.30;;;;;;4935608;29;19915;-33
2023/02/23 12:42:14;;;;;;;;;;;10.70;87.40;;;;;;4935480;29;19943;-37
2023/02/23 12:44:39;;;;;;;;;;;10.60;87.30;;;;;;4935248;29;19915;-34
2023/02/23 12:47:17;;;;;;;;;;;10.60;87.30;;;;;;4935460;29;19963;-35
2023/02/23 12:49:44;;;;;;;;;;;10.60;87.30;;;;;;4935302;29;19961;-33
2023/02/23 12:52:19;;;;;;;;;;;10.50;87.30;;;;;;4935122;29;19925;-32
2023/02/23 12:54:46;;;;;;;;;;;10.50;87.40;;;;;;4935145;29;19961;-38
2023/02/23 12:57:17;;;;;;;;;;;10.50;87.40;;;;;;4935097;29;20029;-30
2023/02/23 12:59:42;;;;;;;;;;;10.50;86.90;;;;;;4935315;29;19914;-30
2023/02/23 13:02:19;;;;;;;;;;;10.40;87.10;;;;;;4935177;29;20260;-39
2023/02/23 13:04:48;;;;;;;;;;;10.30;87.10;;;;;;4934638;29;20022;-33
2023/02/23 13:07:19;;;;;;;;;;;10.30;87.00;;;;;;4934366;29;19935;-32
2023/02/23 13:09:44;;;;;;;;;;;10.20;87.00;;;;;;4935073;29;19922;-33
2023/02/23 13:12:32;;;;;;;;;;;10.20;87.20;;;;;;4934749;29;19919;-32
2023/02/23 13:15:30;;;;;;;;;;;10.20;87.00;;;;;;4933372;29;19966;-33
2023/02/23 13:17:55;;;;;;;;;;;10.10;87.00;;;;;;4902354;29;19915;-35
2023/02/23 13:20:38;;;;;;;;;;;10.20;87.20;;;;;;4934768;29;20008;-34
2023/02/23 13:23:39;;;;;;;;;;;10.10;87.20;;;;;;4934425;29;19919;-35
2023/02/23 13:26:24;;;;;;;;;;;10.20;87.30;;;;;;4875543;29;19923;-33
2023/02/23 13:29:15;;;;;;;;;;;10.20;86.90;;;;;;4929395;29;20457;-31
2023/02/23 13:31:42;;;;;;;;;;;10.10;87.00;;;;;;4911560;29;19918;-35
2023/02/23 13:34:14;;;;;;;;;;;10.10;87.00;;;;;;4934348;29;20438;-36
2023/02/23 13:36:40;;;;;;;;;;;10.10;87.00;;;;;;4916969;29;19924;-42
2023/02/23 13:39:13;;;;;;;;;;;10.10;86.90;;;;;;4934179;29;19914;-30
2023/02/23 13:41:41;;;;;;;;;;;10.00;86.60;;;;;;4934249;29;19915;-37
2023/02/23 13:44:25;;;;;;;;;;;9.90;86.50;;;;;;4933860;29;19982;-34
2023/02/23 13:46:55;;;;;;;;;;;9.90;86.50;;;;;;4934240;29;19946;-37
2023/02/23 13:49:36;;;;;;;;;;;9.80;86.70;;;;;;4934179;29;20013;-31
2023/02/23 13:52:10;;;;;;;;;;;9.90;86.90;;;;;;4933939;29;19922;-34
2023/02/23 13:54:36;;;;;;;;;;;9.90;87.00;;;;;;4933862;29;19929;-33
2023/02/23 13:57:04;;;;;;;;;;;10.00;86.90;;;;;;4934141;29;19919;-36
2023/02/23 13:59:50;;;;;;;;;;;10.10;86.80;;;;;;4934071;29;19919;-38
2023/02/23 14:02:36;;;;;;;;;;;10.10;86.80;;;;;;4933420;29;20421;-36
2023/02/23 14:05:04;;;;;;;;;;;10.30;86.80;;;;;;4933221;29;19915;-32
2023/02/23 14:07:31;;;;;;;;;;;10.40;86.40;;;;;;4933567;29;19933;-34
2023/02/23 14:10:06;;;;;;;;;;;10.50;86.30;;;;;;4934020;29;19980;-35
2023/02/23 14:12:33;;;;;;;;;;;10.50;86.40;;;;;;4934051;29;19918;-37
2023/02/23 14:15:17;;;;;;;;;;;10.60;86.30;;;;;;4933701;29;19954;-35
2023/02/23 14:17:54;;;;;;;;;;;10.70;86.20;;;;;;4933744;29;19921;-40
2023/02/23 14:20:23;;;;;;;;;;;10.80;86.00;;;;;;4936834;29;20068;-36
2023/02/23 14:23:04;;;;;;;;;;;10.80;85.50;;;;;;4937527;29;19919;-37
2023/02/23 14:25:32;;;;;;;;;;;10.70;85.70;;;;;;4937959;29;20398;-37
2023/02/23 14:28:00;;;;;;;;;;;10.80;85.90;;;;;;4937736;29;19923;-35
2023/02/23 14:30:27;;;;;;;;;;;10.80;85.80;;;;;;4937916;29;19914;-33
2023/02/23 14:32:53;;;;;;;;;;;10.80;85.70;;;;;;4937828;29;19915;-36
2023/02/23 14:35:30;;;;;;;;;;;10.70;85.80;;;;;;4937607;29;20374;-37
2023/02/23 14:38:00;;;;;;;;;;;10.70;85.90;;;;;;4937754;29;20340;-35
2023/02/23 14:40:30;;;;;;;;;;;10.70;86.00;;;;;;4937475;29;19915;-33
2023/02/23 14:42:57;;;;;;;;;;;10.70;86.10;;;;;;4937680;29;20261;-37
2023/02/23 14:45:28;;;;;;;;;;;10.70;86.00;;;;;;4937286;29;19915;-36
2023/02/23 14:47:55;;;;;;;;;;;10.70;86.00;;;;;;4937575;29;20232;-32
2023/02/23 14:50:25;;;;;;;;;;;10.70;85.80;;;;;;4937558;29;19915;-35
2023/02/23 14:52:52;;;;;;;;;;;10.60;85.40;;;;;;4937124;29;19915;-35
2023/02/23 14:55:23;;;;;;;;;;;10.50;85.70;;;;;;4937129;29;19919;-34
2023/02/23 14:57:49;;;;;;;;;;;10.50;85.90;;;;;;4937504;29;19915;-35
2023/02/23 15:00:25;;;;;;;;;;;10.40;85.90;;;;;;4937565;29;19941;-33
2023/02/23 15:02:57;;;;;;;;;;;10.40;86.10;;;;;;4937020;29;19941;-35
2023/02/23 15:05:25;;;;;;;;;;;10.40;86.20;;;;;;4937093;29;19922;-32
2023/02/23 15:07:50;;;;;;;;;;;10.40;86.20;;;;;;4936845;29;19934;-33
2023/02/23 15:10:19;;;;;;;;;;;10.40;86.10;;;;;;4937074;29;20423;-31
2023/02/23 15:12:45;;;;;;;;;;;10.30;86.10;;;;;;4936731;29;19937;-30
2023/02/23 15:15:16;;;;;;;;;;;10.30;86.10;;;;;;4937011;29;19914;-32
2023/02/23 15:17:45;;;;;;;;;;;10.40;86.20;;;;;;4936673;29;19915;-34
2023/02/23 15:20:17;;;;;;;;;;;10.40;86.10;;;;;;4936715;29;19915;-38
2023/02/23 15:22:50;;;;;;;;;;;10.40;86.10;;;;;;4919450;29;20339;-37
2023/02/23 15:25:17;;;;;;;;;;;10.40;86.00;;;;;;4936936;29;19914;-43
2023/02/23 15:27:44;;;;;;;;;;;10.30;86.10;;;;;;4936504;29;19970;-35
2023/02/23 15:30:22;;;;;;;;;;;10.30;86.20;;;;;;4935949;29;19958;-35
2023/02/23 15:32:47;;;;;;;;;;;10.30;86.20;;;;;;4936662;29;20409;-34
2023/02/23 15:35:13;;;;;;;;;;;10.30;86.20;;;;;;4936669;29;19915;-33
2023/02/23 15:37:40;;;;;;;;;;;10.40;86.30;;;;;;4918687;29;19915;-37
2023/02/23 15:40:10;;;;;;;;;;;10.40;86.20;;;;;;4936267;29;19915;-38
2023/02/23 15:42:38;;;;;;;;;;;10.40;86.10;;;;;;4936486;29;19958;-36
2023/02/23 15:45:11;;;;;;;;;;;10.40;86.10;;;;;;4936531;29;19922;-36
2023/02/23 15:47:37;;;;;;;;;;;10.40;86.20;;;;;;4936246;29;19965;-34
2023/02/23 15:50:17;;;;;;;;;;;10.50;86.80;;;;;;4936168;29;19975;-37
2023/02/23 15:52:45;;;;;;;;;;;10.40;86.10;;;;;;4936341;29;19952;-35
2023/02/23 15:55:13;;;;;;;;;;;10.40;86.10;;;;;;4936620;29;19918;-33
2023/02/23 15:57:52;;;;;;;;;;;10.40;86.00;;;;;;4936196;29;20268;-36
2023/02/23 16:00:22;;;;;;;;;;;10.40;86.20;;;;;;4936010;29;20232;-43
2023/02/23 16:02:47;;;;;;;;;;;10.40;86.30;;;;;;4935779;29;19954;-36
2023/02/23 16:05:19;;;;;;;;;;;10.30;86.10;;;;;;4934981;29;19950;-34
2023/02/23 16:07:44;;;;;;;;;;;10.30;86.10;;;;;;4935647;29;19930;-36
2023/02/23 16:10:39;;;;;;;;;;;10.20;86.30;;;;;;4935994;29;19918;-35
2023/02/23 16:13:04;;;;;;;;;;;10.20;86.30;;;;;;4922980;29;20027;-39
2023/02/23 16:15:33;;;;;;;;;;;10.20;86.30;;;;;;4936338;29;19927;-35
2023/02/23 16:18:00;;;;;;;;;;;10.10;86.30;;;;;;4936103;29;19915;-37
2023/02/23 16:20:28;;;;;;;;;;;10.10;86.40;;;;;;4918575;29;19981;-38
2023/02/23 16:22:54;;;;;;;;;;;10.10;87.10;;;;;;4934903;29;19919;-31
2023/02/23 16:25:23;;;;;;;;;;;10.10;86.40;;;;;;4935561;29;19918;-37
2023/02/23 16:27:53;;;;;;;;;;;10.20;86.60;;;;;;4935602;29;19914;-40
2023/02/23 16:30:22;;;;;;;;;;;10.20;86.40;;;;;;4935496;29;19915;-37
2023/02/23 16:33:08;;;;;;;;;;;10.10;86.40;;;;;;4935472;29;19998;-31
2023/02/23 16:35:39;;;;;;;;;;;10.10;86.40;;;;;;4925025;29;20113;-35
2023/02/23 16:38:11;;;;;;;;;;;10.10;86.40;;;;;;4935464;29;19915;-38
2023/02/23 16:40:37;;;;;;;;;;;10.10;86.50;;;;;;4935599;29;19911;-35
2023/02/23 16:43:03;;;;;;;;;;;10.10;86.60;;;;;;4934445;29;20005;-32
2023/02/23 16:45:28;;;;;;;;;;;10.10;86.50;;;;;;4935440;29;20314;-36